createdAt,value
2022-11-04T00:02:15.687Z,7.58
2022-11-04T00:04:42.776Z,7.54
2022-11-04T00:07:29.840Z,7.49
2022-11-04T00:09:56.931Z,7.45
2022-11-04T00:12:26.563Z,7.49
2022-11-04T00:14:54.139Z,7.38
2022-11-04T00:17:23.789Z,7.32
2022-11-04T00:20:11.440Z,7.18
2022-11-04T00:23:06.760Z,7.12
2022-11-04T00:25:52.891Z,7.04
2022-11-04T00:28:38.773Z,7.08
2022-11-04T00:31:26.615Z,6.97
2022-11-04T00:33:55.459Z,6.93
2022-11-04T00:36:24.728Z,6.81
2022-11-04T00:38:52.580Z,6.94
2022-11-04T00:41:30.061Z,7.02
2022-11-04T00:44:04.994Z,7.03
2022-11-04T00:46:33.526Z,6.91
2022-11-04T00:49:00.816Z,6.84
2022-11-04T00:51:28.363Z,6.85
2022-11-04T00:53:57.957Z,6.75
2022-11-04T00:56:24.942Z,6.76
2022-11-04T00:58:51.971Z,6.76
2022-11-04T01:01:19.628Z,6.72
2022-11-04T01:03:48.509Z,6.65
2022-11-04T01:06:16.049Z,6.64
2022-11-04T01:08:43.131Z,6.63
2022-11-04T01:11:11.391Z,6.67
2022-11-04T01:13:39.214Z,6.79
2022-11-04T01:16:09.309Z,6.75
2022-11-04T01:18:36.884Z,6.67
2022-11-04T01:21:05.857Z,6.69
2022-11-04T01:23:35.208Z,6.67
2022-11-04T01:26:08.259Z,6.69
2022-11-04T01:28:35.409Z,6.66
2022-11-04T01:31:09.852Z,6.60
2022-11-04T01:33:37.730Z,6.53
2022-11-04T01:36:06.774Z,6.51
2022-11-04T01:38:34.228Z,6.45
2022-11-04T01:41:01.661Z,6.47
2022-11-04T01:43:42.896Z,6.41
2022-11-04T01:46:18.264Z,6.44
2022-11-04T01:48:45.561Z,6.56
2022-11-04T01:51:14.245Z,6.58
2022-11-04T01:53:43.771Z,6.52
2022-11-04T01:56:12.322Z,6.51
2022-11-04T01:58:44.152Z,6.55
2022-11-04T02:01:12.435Z,6.62
2022-11-04T02:03:49.208Z,6.64
2022-11-04T02:06:19.060Z,6.61
2022-11-04T02:08:47.263Z,6.69
2022-11-04T02:11:35.491Z,6.57
2022-11-04T02:14:02.724Z,6.63
2022-11-04T02:16:45.119Z,6.63
2022-11-04T02:19:41.967Z,6.61
2022-11-04T02:22:53.897Z,6.59
2022-11-04T02:25:26.566Z,6.63
2022-11-04T02:28:08.633Z,6.69
2022-11-04T02:30:52.871Z,6.75
2022-11-04T02:33:32.069Z,6.70
2022-11-04T02:36:19.683Z,6.67
2022-11-04T02:39:12.231Z,6.62
2022-11-04T02:41:46.652Z,6.60
2022-11-04T02:44:20.039Z,6.58
2022-11-04T02:46:51.085Z,6.65
2022-11-04T02:49:26.540Z,6.60
2022-11-04T02:52:02.733Z,6.64
2022-11-04T02:54:42.334Z,6.58
2022-11-04T02:57:14.211Z,6.59
2022-11-04T02:59:57.767Z,6.64
2022-11-04T03:02:37.718Z,6.53
2022-11-04T03:05:11.187Z,6.53
2022-11-04T03:07:41.872Z,6.57
2022-11-04T03:10:16.157Z,6.57
2022-11-04T03:12:51.708Z,6.52
2022-11-04T03:15:26.898Z,6.45
2022-11-04T03:18:06.909Z,6.39
2022-11-04T03:20:38.519Z,6.29
2022-11-04T03:23:07.074Z,6.29
2022-11-04T03:25:39.202Z,6.19
2022-11-04T03:28:57.954Z,6.12
2022-11-04T03:31:35.241Z,6.00
2022-11-04T03:34:02.365Z,5.98
2022-11-04T03:36:30.196Z,6.04
2022-11-04T03:38:57.377Z,6.16
2022-11-04T03:41:35.182Z,6.31
2022-11-04T03:44:02.298Z,6.29
2022-11-04T03:46:29.746Z,6.27
2022-11-04T03:48:59.381Z,6.28
2022-11-04T03:51:26.642Z,6.19
2022-11-04T03:53:54.604Z,6.30
2022-11-04T03:56:35.746Z,6.29
2022-11-04T03:59:26.450Z,6.28
2022-11-04T04:02:07.785Z,6.33
2022-11-04T04:04:37.232Z,6.41
2022-11-04T04:07:11.962Z,6.42
2022-11-04T04:09:42.046Z,6.57
2022-11-04T04:12:35.202Z,6.46
2022-11-04T04:15:13.149Z,6.47
2022-11-04T04:17:50.323Z,6.56
2022-11-04T04:20:23.257Z,6.53
2022-11-04T04:23:25.560Z,6.52
2022-11-04T04:26:13.448Z,6.54
2022-11-04T04:28:42.622Z,6.60
2022-11-04T04:31:34.758Z,6.59
2022-11-04T04:34:02.900Z,6.68
2022-11-04T04:36:34.020Z,6.75
2022-11-04T04:39:24.733Z,6.82
2022-11-04T04:42:11.524Z,6.72
2022-11-04T04:44:59.980Z,6.66
2022-11-04T04:47:44.681Z,6.65
2022-11-04T04:50:15.227Z,6.66
2022-11-04T04:52:45.912Z,6.65
2022-11-04T04:55:14.239Z,6.64
2022-11-04T04:57:41.359Z,6.64
2022-11-04T05:00:12.200Z,6.59
2022-11-04T05:02:39.373Z,6.71
2022-11-04T05:05:07.020Z,6.62
2022-11-04T05:07:34.384Z,6.58
2022-11-04T05:10:01.489Z,6.58
2022-11-04T05:12:48.509Z,6.56
2022-11-04T05:15:15.792Z,6.54
2022-11-04T05:17:42.938Z,6.51
2022-11-04T05:20:10.693Z,6.57
2022-11-04T05:22:37.760Z,6.58
2022-11-04T05:25:05.223Z,6.64
2022-11-04T05:27:32.371Z,6.57
2022-11-04T05:29:59.446Z,6.50
2022-11-04T05:32:29.559Z,6.44
2022-11-04T05:34:56.975Z,6.49
2022-11-04T05:37:24.439Z,6.53
2022-11-04T05:39:52.361Z,6.60
2022-11-04T05:42:19.427Z,6.59
2022-11-04T05:44:46.523Z,6.59
2022-11-04T05:47:13.640Z,6.57
2022-11-04T05:49:40.681Z,6.63
2022-11-04T05:52:07.738Z,6.67
2022-11-04T05:54:37.353Z,6.73
2022-11-04T05:57:04.232Z,6.75
2022-11-04T05:59:31.197Z,6.70
2022-11-04T06:01:58.375Z,6.76
2022-11-04T06:04:25.657Z,6.78
2022-11-04T06:06:52.705Z,6.71
2022-11-04T06:09:19.771Z,6.67
2022-11-04T06:11:46.929Z,6.60
2022-11-04T06:14:18.600Z,6.56
2022-11-04T06:16:46.046Z,6.51
2022-11-04T06:19:15.076Z,6.51
2022-11-04T06:21:43.303Z,6.35
2022-11-04T06:24:10.362Z,6.27
2022-11-04T06:26:39.515Z,6.28
2022-11-04T06:29:06.599Z,6.23
2022-11-04T06:31:33.635Z,6.46
2022-11-04T06:34:00.715Z,6.65
2022-11-04T06:36:27.831Z,6.91
2022-11-04T06:38:57.588Z,6.99
2022-11-04T06:41:28.602Z,6.96
2022-11-04T06:43:55.667Z,6.98
2022-11-04T06:46:27.229Z,6.81
2022-11-04T06:48:56.090Z,6.88
2022-11-04T06:51:24.529Z,6.88
2022-11-04T06:53:51.682Z,6.86
2022-11-04T06:56:18.941Z,6.84
2022-11-04T06:58:53.617Z,6.78
2022-11-04T07:01:22.928Z,6.81
2022-11-04T07:03:51.788Z,6.82
2022-11-04T07:06:19.862Z,6.86
2022-11-04T07:08:48.947Z,6.85
2022-11-04T07:11:18.143Z,6.84
2022-11-04T07:13:45.371Z,6.80
2022-11-04T07:16:12.643Z,6.94
2022-11-04T07:18:39.683Z,6.91
2022-11-04T07:21:10.186Z,6.92
2022-11-04T07:23:37.769Z,6.88
2022-11-04T07:26:07.634Z,6.89
2022-11-04T07:28:35.425Z,6.99
2022-11-04T07:31:04.657Z,7.04
2022-11-04T07:33:33.708Z,6.96
2022-11-04T07:36:10.486Z,6.93
2022-11-04T07:38:37.594Z,6.93
2022-11-04T07:41:05.183Z,6.92
2022-11-04T07:43:32.355Z,6.96
2022-11-04T07:46:08.452Z,7.08
2022-11-04T07:48:36.743Z,7.00
2022-11-04T07:51:06.320Z,7.37
2022-11-04T07:53:34.312Z,7.28
2022-11-04T07:56:06.465Z,7.10
2022-11-04T07:58:34.772Z,7.19
2022-11-04T08:01:05.241Z,7.13
2022-11-04T08:03:33.451Z,7.29
2022-11-04T08:06:02.411Z,7.25
2022-11-04T08:08:29.635Z,7.20
2022-11-04T08:11:01.437Z,7.20
2022-11-04T08:13:33.127Z,7.15
2022-11-04T08:16:06.057Z,7.27
2022-11-04T08:18:34.059Z,7.14
2022-11-04T08:21:02.447Z,7.08
2022-11-04T08:23:29.929Z,6.96
2022-11-04T08:25:57.733Z,7.05
2022-11-04T08:28:25.106Z,6.99
2022-11-04T08:30:58.199Z,7.10
2022-11-04T08:33:26.651Z,7.03
2022-11-04T08:35:55.188Z,7.18
2022-11-04T08:38:22.630Z,7.12
2022-11-04T08:40:49.771Z,7.10
2022-11-04T08:43:16.852Z,7.10
2022-11-04T08:45:46.254Z,7.12
2022-11-04T08:48:14.291Z,7.09
2022-11-04T08:50:41.464Z,7.07
2022-11-04T08:53:08.987Z,7.09
2022-11-04T08:55:36.279Z,7.10
2022-11-04T08:58:03.691Z,7.23
2022-11-04T09:00:32.938Z,7.40
2022-11-04T09:03:00.056Z,7.50
2022-11-04T09:05:27.196Z,7.38
2022-11-04T09:07:55.194Z,7.31
2022-11-04T09:10:22.669Z,7.32
2022-11-04T09:12:49.903Z,7.42
2022-11-04T09:15:17.006Z,7.53
2022-11-04T09:17:44.366Z,7.36
2022-11-04T09:20:12.138Z,7.29
2022-11-04T09:22:43.139Z,7.39
2022-11-04T09:25:12.781Z,7.35
2022-11-04T09:27:39.823Z,7.60
2022-11-04T09:30:07.356Z,7.43
2022-11-04T09:32:34.506Z,7.53
2022-11-04T09:35:01.700Z,7.50
2022-11-04T09:37:28.819Z,7.67
2022-11-04T09:39:55.921Z,7.56
2022-11-04T09:42:40.700Z,7.48
2022-11-04T09:45:22.887Z,7.46
2022-11-04T09:47:55.442Z,7.38
2022-11-04T09:50:25.684Z,7.60
2022-11-04T09:53:03.044Z,7.36
2022-11-04T09:55:41.707Z,7.54
2022-11-04T09:58:12.904Z,7.55
2022-11-04T10:00:42.313Z,7.65
2022-11-04T10:03:18.378Z,7.75
2022-11-04T10:06:02.391Z,7.62
2022-11-04T10:08:49.240Z,7.90
2022-11-04T10:11:40.200Z,7.90
2022-11-04T10:14:24.339Z,7.77
2022-11-04T10:16:54.611Z,8.12
2022-11-04T10:20:02.947Z,8.09
2022-11-04T10:22:43.069Z,8.09
2022-11-04T10:25:25.243Z,8.30
2022-11-04T10:27:52.481Z,8.61
2022-11-04T10:30:22.188Z,8.61
2022-11-04T10:33:01.622Z,8.71
2022-11-04T10:36:00.913Z,8.68
2022-11-04T10:38:40.964Z,8.56
2022-11-04T10:41:20.066Z,8.52
2022-11-04T10:43:47.910Z,8.51
2022-11-04T10:46:21.079Z,8.34
2022-11-04T10:48:54.447Z,8.43
2022-11-04T10:51:23.785Z,8.07
2022-11-04T10:53:56.399Z,8.30
2022-11-04T10:56:43.374Z,8.25
2022-11-04T10:59:24.947Z,8.48
2022-11-04T11:01:57.487Z,8.36
2022-11-04T11:04:35.598Z,8.55
2022-11-04T11:07:08.467Z,8.87
2022-11-04T11:09:42.208Z,8.91
2022-11-04T11:12:44.306Z,8.87
2022-11-04T11:14:59.452Z,9.00
2022-11-04T11:17:38.425Z,8.96
2022-11-04T11:20:15.252Z,9.25
2022-11-04T11:22:44.567Z,8.95
2022-11-04T11:25:26.611Z,8.92
2022-11-04T11:28:02.613Z,8.85
2022-11-04T11:31:00.165Z,9.04
2022-11-04T11:33:31.487Z,9.15
2022-11-04T11:36:02.297Z,9.26
2022-11-04T11:38:32.019Z,9.32
2022-11-04T11:41:25.208Z,9.12
2022-11-04T11:43:55.010Z,9.11
2022-11-04T11:46:30.854Z,9.22
2022-11-04T11:49:03.415Z,9.31
2022-11-04T11:51:39.362Z,9.33
2022-11-04T11:54:28.706Z,9.21
2022-11-04T11:57:15.411Z,9.34
2022-11-04T12:02:55.412Z,9.13
2022-11-04T12:11:45.419Z,9.12
2022-11-04T12:14:16.691Z,9.30
2022-11-04T12:17:07.523Z,9.47
2022-11-04T12:19:54.998Z,9.24
2022-11-04T12:22:55.228Z,9.29
2022-11-04T12:25:22.258Z,9.53
2022-11-04T12:27:55.384Z,10.04
2022-11-04T12:30:32.420Z,9.60
2022-11-04T12:33:23.708Z,9.69
2022-11-04T12:36:18.101Z,9.85
2022-11-04T12:39:06.388Z,9.67
2022-11-04T12:42:20.006Z,9.56
2022-11-04T12:45:10.157Z,9.29
2022-11-04T12:47:41.415Z,9.22
2022-11-04T12:50:32.151Z,9.36
2022-11-04T12:53:36.126Z,9.53
2022-11-04T12:56:15.186Z,9.35
2022-11-04T12:58:48.029Z,9.19
2022-11-04T13:01:55.711Z,9.37
2022-11-04T13:04:25.829Z,9.49
2022-11-04T13:06:57.545Z,9.60
2022-11-04T13:09:40.181Z,9.25
2022-11-04T13:12:17.768Z,9.58
2022-11-04T13:14:47.136Z,9.10
2022-11-04T13:17:19.048Z,9.04
2022-11-04T13:19:46.080Z,9.10
2022-11-04T13:22:19.415Z,9.13
2022-11-04T13:24:54.405Z,9.09
2022-11-04T13:27:33.200Z,9.20
2022-11-04T13:30:29.549Z,9.27
2022-11-04T13:33:12.034Z,9.69
2022-11-04T13:35:47.997Z,9.52
2022-11-04T13:38:20.386Z,9.26
2022-11-04T13:41:22.469Z,10.08
2022-11-04T13:43:56.735Z,10.94
2022-11-04T13:46:35.063Z,11.32
2022-11-04T13:49:06.206Z,10.89
2022-11-04T13:51:42.319Z,10.13
2022-11-04T13:54:27.805Z,9.62
2022-11-04T13:57:04.451Z,9.56
2022-11-04T13:59:32.851Z,9.31
2022-11-04T14:02:12.426Z,8.98
2022-11-04T14:04:44.666Z,9.11
2022-11-04T14:07:15.827Z,9.27
2022-11-04T14:09:42.868Z,9.26
2022-11-04T14:12:19.491Z,9.17
2022-11-04T14:14:50.362Z,9.50
2022-11-04T14:17:32.586Z,9.28
2022-11-04T14:20:09.049Z,8.91
2022-11-04T14:22:56.674Z,8.86
2022-11-04T14:25:26.693Z,8.99
2022-11-04T14:27:59.702Z,9.17
2022-11-04T14:30:34.422Z,8.87
2022-11-04T14:33:06.504Z,8.89
2022-11-04T14:35:35.490Z,8.85
2022-11-04T14:38:17.785Z,8.69
2022-11-04T14:41:12.557Z,8.82
2022-11-04T14:43:43.269Z,9.28
2022-11-04T14:46:13.523Z,9.26
2022-11-04T14:48:51.758Z,9.05
2022-11-04T14:51:24.896Z,9.03
2022-11-04T14:53:56.031Z,8.83
2022-11-04T14:56:24.678Z,8.60
2022-11-04T14:58:57.614Z,8.69
2022-11-04T15:01:34.666Z,8.64
2022-11-04T15:04:14.298Z,9.08
2022-11-04T15:06:54.897Z,9.32
2022-11-04T15:09:47.997Z,9.61
2022-11-04T15:12:37.337Z,11.09
2022-11-04T15:15:26.923Z,12.13
2022-11-04T15:17:57.383Z,10.36
2022-11-04T15:20:26.401Z,9.66
2022-11-04T15:22:55.546Z,9.84
2022-11-04T15:25:23.118Z,9.72
2022-11-04T15:27:50.265Z,9.66
2022-11-04T15:30:29.477Z,9.47
2022-11-04T15:33:00.029Z,9.51
2022-11-04T15:35:30.236Z,9.28
2022-11-04T15:37:59.937Z,9.27
2022-11-04T15:40:29.002Z,9.33
2022-11-04T15:43:04.635Z,9.32
2022-11-04T15:45:34.807Z,9.26
2022-11-04T15:48:28.013Z,9.25
2022-11-04T15:50:58.012Z,8.75
2022-11-04T15:53:25.077Z,8.47
2022-11-04T15:55:52.635Z,8.37
2022-11-04T15:58:19.851Z,8.22
2022-11-04T16:00:55.523Z,8.17
2022-11-04T16:03:24.517Z,8.06
2022-11-04T16:06:03.949Z,7.86
2022-11-04T16:08:32.099Z,7.93
2022-11-04T16:11:28.574Z,7.81
2022-11-04T16:14:14.537Z,7.95
2022-11-04T16:16:47.980Z,8.00
2022-11-04T16:19:24.658Z,7.95
2022-11-04T16:22:04.966Z,8.00
2022-11-04T16:24:34.606Z,7.91
2022-11-04T16:27:01.772Z,7.79
2022-11-04T16:29:35.754Z,7.75
2022-11-04T16:32:21.404Z,7.68
2022-11-04T16:34:50.187Z,7.66
2022-11-04T16:37:18.043Z,7.65
2022-11-04T16:39:45.689Z,7.80
2022-11-04T16:42:14.668Z,7.96
2022-11-04T16:44:48.056Z,8.22
2022-11-04T16:47:15.807Z,8.18
2022-11-04T16:49:42.847Z,8.19
2022-11-04T16:52:18.036Z,8.05
2022-11-04T16:54:46.984Z,8.23
2022-11-04T16:57:15.092Z,8.24
2022-11-04T16:59:42.611Z,8.22
2022-11-04T17:02:37.612Z,8.32
2022-11-04T17:05:05.342Z,8.44
2022-11-04T17:07:51.486Z,8.38
2022-11-04T17:10:27.850Z,8.40
2022-11-04T17:12:54.991Z,8.55
2022-11-04T17:15:22.494Z,8.60
2022-11-04T17:17:49.699Z,8.51
2022-11-04T17:20:18.603Z,8.53
2022-11-04T17:22:47.217Z,8.57
2022-11-04T17:25:18.169Z,8.55
2022-11-04T17:27:45.591Z,8.36
2022-11-04T17:30:14.245Z,8.33
2022-11-04T17:32:42.474Z,8.31
2022-11-04T17:35:11.502Z,8.03
2022-11-04T17:37:38.706Z,8.13
2022-11-04T17:40:08.673Z,8.24
2022-11-04T17:42:54.491Z,8.13
2022-11-04T17:45:21.653Z,8.20
2022-11-04T17:47:48.744Z,8.16
2022-11-04T17:50:15.844Z,8.18
2022-11-04T17:52:43.983Z,8.12
2022-11-04T17:55:16.369Z,7.84
2022-11-04T17:57:43.999Z,7.81
2022-11-04T18:00:14.149Z,7.83
2022-11-04T18:02:41.726Z,7.79
2022-11-04T18:05:09.392Z,7.78
2022-11-04T18:07:36.816Z,7.63
2022-11-04T18:10:04.200Z,7.51
2022-11-04T18:12:37.303Z,7.50
2022-11-04T18:15:05.939Z,7.70
2022-11-04T18:17:37.357Z,7.96
2022-11-04T18:20:08.219Z,7.65
2022-11-04T18:22:39.461Z,7.76
2022-11-04T18:25:07.116Z,7.94
2022-11-04T18:27:34.357Z,8.08
2022-11-04T18:30:01.479Z,8.21
2022-11-04T18:32:28.577Z,7.94
2022-11-04T18:34:55.633Z,7.83
2022-11-04T18:37:23.820Z,7.78
2022-11-04T18:39:50.965Z,7.67
2022-11-04T18:42:18.025Z,7.65
2022-11-04T18:44:45.102Z,7.61
2022-11-04T18:47:13.574Z,7.63
2022-11-04T18:49:41.227Z,7.55
2022-11-04T18:52:08.304Z,7.57
2022-11-04T18:54:36.187Z,7.58
2022-11-04T18:57:04.595Z,7.58
2022-11-04T18:59:32.159Z,7.78
2022-11-04T19:01:59.434Z,7.83
2022-11-04T19:04:27.056Z,8.00
2022-11-04T19:06:54.203Z,8.14
2022-11-04T19:12:27.379Z,8.05
2022-11-04T19:14:54.448Z,7.85
2022-11-04T19:17:21.761Z,8.06
2022-11-04T19:19:49.401Z,8.27
2022-11-04T19:22:16.439Z,8.26
2022-11-04T19:24:43.608Z,7.93
2022-11-04T19:27:10.662Z,7.86
2022-11-04T19:29:38.164Z,7.71
2022-11-04T19:32:09.593Z,7.65
2022-11-04T19:34:40.045Z,7.65
2022-11-04T19:37:07.093Z,7.73
2022-11-04T19:39:34.173Z,7.67
2022-11-04T19:42:19.663Z,7.76
2022-11-04T19:44:46.812Z,7.70
2022-11-04T19:47:13.891Z,7.68
2022-11-04T19:49:41.085Z,7.70
2022-11-04T19:52:08.870Z,7.66
2022-11-04T19:54:35.954Z,7.71
2022-11-04T19:57:03.072Z,7.68
2022-11-04T19:59:30.232Z,7.84
2022-11-04T20:01:57.519Z,7.71
2022-11-04T20:04:25.238Z,7.62
2022-11-04T20:06:52.265Z,7.72
2022-11-04T20:09:20.249Z,7.76
2022-11-04T20:12:05.919Z,7.83
2022-11-04T20:14:33.002Z,7.78
2022-11-04T20:17:02.294Z,7.67
2022-11-04T20:19:29.457Z,7.69
2022-11-04T20:21:56.481Z,7.92
2022-11-04T20:24:25.146Z,7.98
2022-11-04T20:26:52.463Z,7.99
2022-11-04T20:29:19.630Z,8.15
2022-11-04T20:31:46.956Z,8.01
2022-11-04T20:34:14.855Z,7.89
2022-11-04T20:36:42.539Z,7.88
2022-11-04T20:39:15.515Z,8.02
2022-11-04T20:41:43.560Z,8.13
2022-11-04T20:44:14.908Z,8.07
2022-11-04T20:46:43.396Z,8.14
2022-11-04T20:49:11.718Z,7.96
2022-11-04T20:51:54.434Z,7.74
2022-11-04T20:54:22.558Z,7.86
2022-11-04T20:56:49.613Z,7.92
2022-11-04T20:59:18.198Z,7.87
2022-11-04T21:01:47.338Z,7.77
2022-11-04T21:04:19.927Z,7.83
2022-11-04T21:06:51.738Z,7.80
2022-11-04T21:09:21.015Z,7.76
2022-11-04T21:11:50.013Z,7.91
2022-11-04T21:14:19.327Z,7.79
2022-11-04T21:16:47.176Z,7.73
2022-11-04T21:19:15.798Z,7.63
2022-11-04T21:21:44.140Z,7.62
2022-11-04T21:24:13.468Z,7.57
2022-11-04T21:26:40.575Z,7.55
2022-11-04T21:29:10.510Z,7.68
2022-11-04T21:31:37.626Z,7.58
2022-11-04T21:34:05.059Z,7.50
2022-11-04T21:36:32.780Z,7.61
2022-11-04T21:39:00.441Z,7.61
2022-11-04T21:41:30.357Z,7.58
2022-11-04T21:43:59.312Z,7.50
2022-11-04T21:46:28.000Z,7.50
2022-11-04T21:48:55.489Z,7.60
2022-11-04T21:51:31.012Z,7.36
2022-11-04T21:53:59.263Z,7.48
2022-11-04T21:56:33.665Z,7.28
2022-11-04T21:59:01.498Z,7.35
2022-11-04T22:01:30.326Z,7.59
2022-11-04T22:03:59.878Z,7.60
2022-11-04T22:06:33.546Z,7.62
2022-11-04T22:09:03.992Z,7.67
2022-11-04T22:11:32.839Z,7.62
2022-11-04T22:14:01.920Z,7.62
2022-11-04T22:16:31.925Z,7.63
2022-11-04T22:19:00.928Z,7.72
2022-11-04T22:21:29.574Z,7.53
2022-11-04T22:23:57.433Z,7.58
2022-11-04T22:26:30.537Z,7.56
2022-11-04T22:28:58.565Z,7.57
2022-11-04T22:31:31.448Z,7.62
2022-11-04T22:33:59.692Z,7.41
2022-11-04T22:36:27.648Z,7.53
2022-11-04T22:38:56.166Z,7.53
2022-11-04T22:41:26.848Z,7.48
2022-11-04T22:43:55.660Z,7.54
2022-11-04T22:46:28.972Z,7.60
2022-11-04T22:48:56.305Z,7.55
2022-11-04T22:51:23.377Z,7.59
2022-11-04T22:53:57.643Z,7.55
2022-11-04T22:56:26.146Z,7.46
2022-11-04T22:58:54.055Z,7.55
2022-11-04T23:01:22.301Z,7.50
2022-11-04T23:03:51.808Z,7.60
2022-11-04T23:06:19.529Z,7.49
2022-11-04T23:08:46.669Z,7.55
2022-11-04T23:11:38.680Z,7.47
2022-11-04T23:14:24.609Z,7.36
2022-11-04T23:17:18.008Z,7.21
2022-11-04T23:19:45.114Z,7.31
2022-11-04T23:22:30.581Z,7.43
2022-11-04T23:25:15.501Z,7.32
2022-11-04T23:28:05.160Z,7.20
2022-11-04T23:30:35.498Z,7.32
2022-11-04T23:33:11.512Z,7.20
2022-11-04T23:36:19.738Z,7.13
2022-11-04T23:38:50.315Z,6.91
2022-11-04T23:41:36.173Z,6.76
2022-11-04T23:44:03.317Z,6.69
2022-11-04T23:46:48.919Z,6.42
2022-11-04T23:49:34.781Z,6.47
2022-11-04T23:52:20.161Z,6.52
2022-11-04T23:55:05.533Z,6.52
2022-11-04T23:57:51.041Z,6.47
